createdAt,value
2019-06-07T00:01:41.050Z,11.20
2019-06-07T00:04:10.330Z,11.20
2019-06-07T00:06:38.659Z,11.10
2019-06-07T00:09:08.162Z,11.00
2019-06-07T00:11:36.274Z,11.00
2019-06-07T00:14:04.455Z,11.10
2019-06-07T00:16:32.158Z,11.10
2019-06-07T00:18:59.801Z,11.10
2019-06-07T00:22:12.915Z,11.00
2019-06-07T00:23:56.976Z,10.80
2019-06-07T00:26:24.871Z,10.90
2019-06-07T00:28:52.716Z,11.00
2019-06-07T00:31:24.059Z,10.90
2019-06-07T00:33:50.185Z,10.90
2019-06-07T00:36:20.062Z,10.90
2019-06-07T00:38:47.466Z,10.90
2019-06-07T00:41:18.855Z,10.90
2019-06-07T00:43:44.692Z,10.90
2019-06-07T00:46:14.391Z,10.80
2019-06-07T00:48:42.228Z,10.60
2019-06-07T00:51:11.617Z,10.70
2019-06-07T00:53:39.529Z,10.70
2019-06-07T00:56:07.828Z,10.70
2019-06-07T00:58:36.263Z,10.60
2019-06-07T01:01:04.811Z,10.60
2019-06-07T01:03:32.520Z,10.60
2019-06-07T01:06:00.164Z,10.60
2019-06-07T01:08:30.083Z,10.60
2019-06-07T01:10:58.088Z,10.60
2019-06-07T01:13:26.929Z,10.60
2019-06-07T01:15:54.818Z,10.50
2019-06-07T01:18:43.412Z,10.50
2019-06-07T01:20:52.197Z,10.50
2019-06-07T01:24:04.758Z,10.60
2019-06-07T01:25:49.725Z,10.50
2019-06-07T01:28:21.379Z,10.50
2019-06-07T01:30:47.293Z,10.50
2019-06-07T01:33:15.925Z,10.60
2019-06-07T01:35:43.819Z,10.60
2019-06-07T01:38:11.770Z,10.50
2019-06-07T01:40:39.503Z,10.50
2019-06-07T01:43:07.316Z,10.60
2019-06-07T01:45:35.304Z,10.50
2019-06-07T01:48:04.340Z,10.50
2019-06-07T01:50:32.154Z,10.50
2019-06-07T01:52:59.966Z,10.50
2019-06-07T01:55:32.371Z,10.50
2019-06-07T01:57:57.382Z,10.60
2019-06-07T02:00:31.500Z,10.50
2019-06-07T02:02:56.909Z,10.50
2019-06-07T02:05:29.878Z,10.50
2019-06-07T02:07:54.417Z,10.40
2019-06-07T02:10:24.685Z,10.50
2019-06-07T02:12:51.902Z,10.50
2019-06-07T02:15:23.017Z,10.40
2019-06-07T02:17:49.787Z,10.50
2019-06-07T02:20:17.935Z,10.50
2019-06-07T02:22:45.662Z,10.50
2019-06-07T02:25:43.832Z,10.50
2019-06-07T02:27:43.134Z,10.50
2019-06-07T02:30:37.200Z,10.50
2019-06-07T02:32:42.256Z,10.40
2019-06-07T02:35:10.217Z,10.30
2019-06-07T02:37:38.341Z,10.20
2019-06-07T02:40:07.867Z,10.20
2019-06-07T02:42:42.247Z,10.30
2019-06-07T02:45:10.880Z,10.20
2019-06-07T02:47:39.331Z,10.10
2019-06-07T02:50:08.705Z,10.10
2019-06-07T02:52:40.389Z,10.00
2019-06-07T02:55:06.771Z,10.00
2019-06-07T02:57:37.012Z,10.10
2019-06-07T03:00:39.942Z,10.20
2019-06-07T03:02:41.495Z,10.10
2019-06-07T03:05:09.620Z,10.20
2019-06-07T03:07:40.418Z,10.30
2019-06-07T03:10:09.075Z,10.40
2019-06-07T03:12:39.764Z,10.40
2019-06-07T03:15:09.117Z,10.60
2019-06-07T03:18:07.336Z,10.40
2019-06-07T03:20:36.799Z,10.30
2019-06-07T03:23:05.946Z,10.50
2019-06-07T03:25:39.229Z,10.60
2019-06-07T03:28:08.897Z,10.60
2019-06-07T03:30:52.189Z,10.40
2019-06-07T03:33:07.165Z,10.40
2019-06-07T03:35:37.348Z,10.40
2019-06-07T03:38:05.043Z,10.50
2019-06-07T03:40:36.819Z,10.60
2019-06-07T03:43:02.822Z,10.60
2019-06-07T03:45:32.435Z,10.70
2019-06-07T03:48:01.481Z,10.90
2019-06-07T03:50:33.432Z,10.90
2019-06-07T03:52:59.064Z,11.00
2019-06-07T03:55:27.793Z,11.00
2019-06-07T04:00:25.602Z,11.10
2019-06-07T04:02:53.271Z,11.00
2019-06-07T04:05:21.167Z,10.80
2019-06-07T04:07:48.985Z,10.70
2019-06-07T04:10:16.814Z,10.50
2019-06-07T04:12:44.576Z,10.60
2019-06-07T04:15:12.913Z,10.50
2019-06-07T04:18:00.401Z,10.60
2019-06-07T04:20:11.555Z,10.60
2019-06-07T04:22:42.426Z,10.60
2019-06-07T04:25:10.421Z,10.70
2019-06-07T04:27:40.502Z,10.70
2019-06-07T04:30:09.027Z,10.90
2019-06-07T04:32:39.559Z,11.20
2019-06-07T04:35:06.765Z,11.20
2019-06-07T04:37:39.673Z,11.30
2019-06-07T04:40:06.389Z,11.40
2019-06-07T04:42:39.131Z,11.40
2019-06-07T04:45:06.201Z,11.40
2019-06-07T04:47:37.226Z,11.50
2019-06-07T04:50:05.333Z,11.60
2019-06-07T04:52:36.165Z,11.80
2019-06-07T04:55:02.942Z,11.70
2019-06-07T04:57:33.466Z,11.70
2019-06-07T05:00:12.782Z,11.80
2019-06-07T05:02:31.901Z,11.80
2019-06-07T05:04:59.870Z,11.90
2019-06-07T05:07:27.796Z,12.00
2019-06-07T05:09:55.618Z,12.00
2019-06-07T05:12:23.448Z,12.00
2019-06-07T05:14:51.395Z,12.10
2019-06-07T05:17:19.279Z,11.90
2019-06-07T05:19:47.196Z,11.80
2019-06-07T05:22:15.223Z,11.80
2019-06-07T05:24:44.027Z,11.80
2019-06-07T05:27:11.871Z,11.70
2019-06-07T05:29:41.659Z,11.70
2019-06-07T05:32:10.238Z,11.70
2019-06-07T05:34:40.058Z,11.70
2019-06-07T05:37:12.001Z,11.70
2019-06-07T05:39:42.597Z,11.70
2019-06-07T05:42:08.887Z,11.70
2019-06-07T05:44:39.110Z,11.60
2019-06-07T05:47:06.270Z,11.70
2019-06-07T05:49:38.006Z,11.80
2019-06-07T05:52:04.312Z,11.90
2019-06-07T05:54:35.077Z,12.10
2019-06-07T05:57:01.876Z,12.20
2019-06-07T05:59:29.647Z,12.40
2019-06-07T06:02:05.031Z,12.40
2019-06-07T06:04:27.094Z,12.10
2019-06-07T06:06:54.900Z,12.10
2019-06-07T06:09:22.744Z,12.00
2019-06-07T06:12:01.895Z,12.00
2019-06-07T06:14:20.400Z,12.10
2019-06-07T06:16:50.045Z,12.30
2019-06-07T06:19:17.793Z,12.50
2019-06-07T06:21:46.483Z,12.80
2019-06-07T06:24:14.759Z,12.90
2019-06-07T06:26:50.543Z,12.70
2019-06-07T06:29:12.570Z,12.60
2019-06-07T06:31:42.054Z,12.60
2019-06-07T06:34:10.046Z,12.70
2019-06-07T06:36:39.746Z,12.90
2019-06-07T06:39:09.634Z,12.80
2019-06-07T06:41:53.160Z,12.80
2019-06-07T06:44:07.781Z,12.60
2019-06-07T06:46:40.970Z,12.60
2019-06-07T06:49:05.379Z,12.90
2019-06-07T06:51:33.225Z,13.10
2019-06-07T06:54:01.139Z,13.30
2019-06-07T06:56:28.852Z,13.60
2019-06-07T06:59:35.236Z,13.70
2019-06-07T07:01:26.748Z,13.90
2019-06-07T07:04:11.662Z,13.90
2019-06-07T07:06:26.879Z,14.30
2019-06-07T07:08:55.910Z,14.60
2019-06-07T07:11:23.651Z,14.90
2019-06-07T07:13:56.331Z,15.20
2019-06-07T07:16:22.353Z,15.50
2019-06-07T07:18:52.928Z,16.00
2019-06-07T07:21:20.182Z,15.30
2019-06-07T07:24:14.157Z,15.30
2019-06-07T07:26:17.603Z,15.50
2019-06-07T07:28:46.650Z,16.20
2019-06-07T07:31:15.293Z,16.30
2019-06-07T07:34:23.950Z,16.10
2019-06-07T07:36:28.575Z,15.60
2019-06-07T07:38:45.618Z,16.00
2019-06-07T07:41:15.537Z,16.30
2019-06-07T07:43:41.622Z,16.40
2019-06-07T07:46:28.493Z,16.40
2019-06-07T07:48:39.190Z,16.20
2019-06-07T07:51:07.063Z,16.10
2019-06-07T07:53:48.382Z,15.90
2019-06-07T07:56:05.007Z,16.20
2019-06-07T07:58:33.052Z,16.30
2019-06-07T08:01:10.009Z,16.10
2019-06-07T08:03:30.539Z,16.20
2019-06-07T08:06:00.034Z,15.50
2019-06-07T08:08:28.056Z,15.40
2019-06-07T08:10:59.270Z,15.80
2019-06-07T08:13:27.644Z,16.20
2019-06-07T08:15:59.100Z,16.40
2019-06-07T08:18:26.496Z,16.40
2019-06-07T08:21:15.025Z,16.10
2019-06-07T08:23:23.909Z,15.90
2019-06-07T08:25:52.747Z,15.90
2019-06-07T08:28:21.617Z,16.00
2019-06-07T08:30:56.870Z,16.30
2019-06-07T08:33:27.020Z,16.00
2019-06-07T08:36:15.118Z,16.20
2019-06-07T08:38:33.842Z,15.90
2019-06-07T08:40:54.591Z,15.80
2019-06-07T08:43:20.651Z,16.50
2019-06-07T08:45:47.401Z,17.40
2019-06-07T08:48:27.598Z,17.80
2019-06-07T08:50:44.838Z,17.90
2019-06-07T08:53:12.728Z,18.10
2019-06-07T08:55:41.705Z,17.70
2019-06-07T08:58:09.615Z,16.70
2019-06-07T09:00:46.935Z,16.70
2019-06-07T09:03:07.659Z,17.00
2019-06-07T09:05:35.721Z,16.90
2019-06-07T09:08:23.636Z,17.10
2019-06-07T09:10:33.365Z,17.00
2019-06-07T09:13:07.979Z,17.10
2019-06-07T09:15:30.991Z,17.10
2019-06-07T09:20:45.004Z,17.40
2019-06-07T09:23:17.154Z,17.60
2019-06-07T09:25:56.654Z,17.70
2019-06-07T09:28:19.508Z,17.80
2019-06-07T09:30:44.207Z,18.20
2019-06-07T09:33:12.533Z,18.60
2019-06-07T09:35:40.486Z,19.30
2019-06-07T09:38:23.379Z,19.40
2019-06-07T09:40:37.973Z,20.00
2019-06-07T09:43:54.834Z,20.50
2019-06-07T09:45:36.326Z,20.80
2019-06-07T09:48:10.102Z,21.70
2019-06-07T09:50:34.025Z,21.70
2019-06-07T09:53:10.121Z,21.40
2019-06-07T09:55:31.886Z,21.20
2019-06-07T09:58:06.904Z,20.80
2019-06-07T10:00:44.929Z,20.70
2019-06-07T10:03:07.919Z,21.00
2019-06-07T10:05:29.305Z,21.10
2019-06-07T10:08:12.207Z,21.90
2019-06-07T10:12:57.463Z,23.00
2019-06-07T10:15:25.859Z,22.50
2019-06-07T10:17:53.643Z,22.10
2019-06-07T10:20:21.466Z,21.90
2019-06-07T10:22:49.195Z,21.70
2019-06-07T10:25:17.581Z,21.40
2019-06-07T10:27:45.430Z,21.10
2019-06-07T10:30:13.392Z,21.00
2019-06-07T10:32:41.371Z,20.80
2019-06-07T10:35:11.367Z,20.60
2019-06-07T10:37:39.013Z,20.80
2019-06-07T10:40:06.974Z,22.30
2019-06-07T10:42:34.813Z,23.50
2019-06-07T10:45:06.592Z,23.60
2019-06-07T10:47:35.182Z,24.20
2019-06-07T10:50:03.890Z,25.70
2019-06-07T10:52:31.696Z,26.30
2019-06-07T10:54:59.419Z,26.00
2019-06-07T10:57:27.285Z,26.80
2019-06-07T10:59:55.119Z,28.20
2019-06-07T11:02:22.969Z,29.20
2019-06-07T11:04:50.813Z,30.10
2019-06-07T11:07:18.876Z,28.90
2019-06-07T11:09:46.634Z,28.20
2019-06-07T11:12:15.348Z,28.40
2019-06-07T11:14:43.156Z,28.50
2019-06-07T11:17:13.406Z,28.60
2019-06-07T11:19:41.416Z,29.00
2019-06-07T11:22:10.173Z,28.80
2019-06-07T11:24:38.535Z,29.30
2019-06-07T11:27:07.779Z,29.30
2019-06-07T11:29:38.581Z,28.90
2019-06-07T11:32:06.769Z,28.60
2019-06-07T11:34:34.684Z,29.50
2019-06-07T11:37:02.563Z,29.30
2019-06-07T11:39:30.356Z,30.50
2019-06-07T11:41:58.138Z,31.20
2019-06-07T11:44:25.862Z,31.00
2019-06-07T11:46:55.391Z,29.40
2019-06-07T11:49:25.181Z,28.40
2019-06-07T11:51:52.997Z,27.80
2019-06-07T11:54:20.923Z,28.50
2019-06-07T11:56:48.771Z,29.30
2019-06-07T11:59:17.461Z,30.80
2019-06-07T12:01:45.379Z,31.60
2019-06-07T12:04:14.035Z,32.60
2019-06-07T12:06:43.276Z,32.60
2019-06-07T12:09:12.460Z,31.00
2019-06-07T12:11:40.362Z,29.40
2019-06-07T12:14:08.780Z,27.30
2019-06-07T12:16:36.582Z,27.30
2019-06-07T12:19:04.581Z,27.00
2019-06-07T12:21:32.660Z,26.10
2019-06-07T12:24:00.565Z,26.40
2019-06-07T12:26:28.722Z,26.30
2019-06-07T12:28:56.591Z,26.70
2019-06-07T12:31:24.354Z,26.10
2019-06-07T12:33:52.467Z,25.20
2019-06-07T12:36:20.322Z,24.50
2019-06-07T12:38:48.812Z,23.70
2019-06-07T12:41:16.619Z,23.90
2019-06-07T12:43:44.502Z,25.00
2019-06-07T12:46:15.436Z,25.20
2019-06-07T12:48:41.915Z,25.20
2019-06-07T12:51:09.794Z,24.50
2019-06-07T12:53:37.583Z,24.00
2019-06-07T12:56:05.331Z,25.40
2019-06-07T12:58:37.230Z,25.80
2019-06-07T13:01:05.872Z,26.40
2019-06-07T13:03:33.889Z,27.30
2019-06-07T13:06:01.775Z,26.80
2019-06-07T13:08:29.610Z,26.10
2019-06-07T13:11:13.703Z,25.80
2019-06-07T13:13:28.096Z,26.80
2019-06-07T13:15:57.188Z,27.60
2019-06-07T13:18:25.320Z,28.90
2019-06-07T13:20:55.475Z,26.40
2019-06-07T13:23:24.725Z,25.80
2019-06-07T13:25:52.530Z,26.10
2019-06-07T13:28:22.567Z,27.00
2019-06-07T13:30:51.365Z,26.70
2019-06-07T13:33:19.145Z,26.60
2019-06-07T13:35:48.346Z,26.00
2019-06-07T13:38:26.112Z,26.00
2019-06-07T13:40:55.367Z,25.00
2019-06-07T13:43:23.486Z,25.70
2019-06-07T13:45:51.458Z,25.70
2019-06-07T13:48:19.569Z,25.90
2019-06-07T13:50:48.475Z,26.50
2019-06-07T13:53:16.514Z,27.60
2019-06-07T13:55:44.511Z,28.10
2019-06-07T13:58:12.282Z,28.50
2019-06-07T14:00:42.902Z,27.40
2019-06-07T14:03:11.020Z,27.40
2019-06-07T14:05:39.072Z,27.80
2019-06-07T14:08:07.286Z,27.20
2019-06-07T14:10:35.093Z,28.40
2019-06-07T14:13:03.265Z,29.50
2019-06-07T14:15:34.077Z,28.50
2019-06-07T14:18:01.075Z,27.80
2019-06-07T14:20:32.476Z,27.90
2019-06-07T14:22:58.647Z,27.70
2019-06-07T14:25:27.284Z,29.00
2019-06-07T14:27:55.222Z,29.50
2019-06-07T14:30:23.917Z,28.90
2019-06-07T14:32:52.072Z,28.10
2019-06-07T14:35:19.907Z,27.70
2019-06-07T14:37:47.741Z,27.60
2019-06-07T14:40:16.556Z,26.80
2019-06-07T14:42:44.438Z,27.00
2019-06-07T14:45:13.511Z,27.70
2019-06-07T14:47:41.340Z,28.30
2019-06-07T14:50:09.780Z,27.40
2019-06-07T14:52:37.678Z,28.10
2019-06-07T14:55:05.797Z,28.20
2019-06-07T14:57:33.964Z,28.00
2019-06-07T15:00:10.924Z,27.60
2019-06-07T15:02:36.467Z,29.10
2019-06-07T15:05:04.273Z,28.80
2019-06-07T15:07:32.934Z,29.00
2019-06-07T15:10:01.020Z,27.60
2019-06-07T15:12:29.353Z,27.50
2019-06-07T15:14:57.544Z,27.00
2019-06-07T15:17:26.470Z,27.50
2019-06-07T15:19:55.691Z,27.70
2019-06-07T15:22:24.171Z,27.40
2019-06-07T15:24:52.347Z,27.50
2019-06-07T15:27:23.968Z,27.70
2019-06-07T15:29:52.299Z,27.10
2019-06-07T15:32:20.459Z,27.30
2019-06-07T15:34:48.385Z,27.10
2019-06-07T15:37:16.051Z,27.90
2019-06-07T15:39:43.907Z,27.50
2019-06-07T15:42:11.643Z,27.50
2019-06-07T15:44:39.689Z,27.70
2019-06-07T15:47:07.953Z,27.90
2019-06-07T15:49:36.176Z,27.00
2019-06-07T15:52:04.075Z,26.50
2019-06-07T15:54:32.256Z,26.10
2019-06-07T15:57:00.219Z,26.40
2019-06-07T15:59:28.133Z,27.20
2019-06-07T16:01:57.509Z,26.80
2019-06-07T16:04:25.543Z,26.00
2019-06-07T16:06:53.485Z,26.20
2019-06-07T16:09:21.160Z,26.00
2019-06-07T16:11:49.156Z,26.50
2019-06-07T16:14:17.282Z,26.60
2019-06-07T16:16:45.388Z,25.70
2019-06-07T16:19:13.423Z,25.20
2019-06-07T16:21:41.717Z,25.00
2019-06-07T16:24:09.547Z,24.70
2019-06-07T16:26:38.189Z,24.70
2019-06-07T16:29:06.197Z,24.60
2019-06-07T16:31:35.203Z,24.50
2019-06-07T16:34:03.272Z,24.30
2019-06-07T16:36:31.479Z,24.50
2019-06-07T16:38:59.396Z,24.10
2019-06-07T16:41:28.352Z,24.10
2019-06-07T16:43:56.438Z,24.30
2019-06-07T16:46:24.141Z,24.10
2019-06-07T16:48:51.953Z,24.20
2019-06-07T16:51:19.928Z,24.30
2019-06-07T16:53:48.610Z,24.20
2019-06-07T16:56:16.776Z,24.00
2019-06-07T16:58:44.591Z,24.00
2019-06-07T17:01:12.412Z,23.70
2019-06-07T17:03:41.340Z,23.70
2019-06-07T17:06:10.705Z,23.70
2019-06-07T17:08:39.990Z,23.80
2019-06-07T17:11:08.117Z,23.80
2019-06-07T17:13:35.882Z,23.70
2019-06-07T17:16:03.803Z,23.60
2019-06-07T17:18:31.698Z,23.60
2019-06-07T17:20:59.795Z,23.40
2019-06-07T17:23:27.552Z,23.40
2019-06-07T17:25:55.473Z,23.40
2019-06-07T17:28:23.556Z,23.30
2019-06-07T17:30:51.528Z,23.30
2019-06-07T17:33:19.447Z,23.10
2019-06-07T17:35:48.556Z,23.20
2019-06-07T17:38:17.897Z,23.10
2019-06-07T17:40:47.008Z,23.20
2019-06-07T17:43:15.021Z,23.20
2019-06-07T17:45:45.398Z,23.20
2019-06-07T17:48:13.795Z,23.10
2019-06-07T17:50:42.150Z,23.10
2019-06-07T17:53:10.041Z,23.00
2019-06-07T17:55:38.245Z,22.90
2019-06-07T17:58:06.141Z,22.80
2019-06-07T18:00:48.762Z,22.80
2019-06-07T18:03:17.071Z,22.80
2019-06-07T18:05:47.168Z,22.60
2019-06-07T18:08:15.675Z,22.50
2019-06-07T18:10:43.928Z,22.40
2019-06-07T18:13:12.655Z,22.40
2019-06-07T18:15:46.434Z,22.30
2019-06-07T18:18:19.863Z,22.40
2019-06-07T18:20:49.120Z,22.40
2019-06-07T18:23:17.277Z,22.30
2019-06-07T18:25:46.347Z,22.20
2019-06-07T18:28:14.504Z,22.10
2019-06-07T18:30:42.268Z,22.10
2019-06-07T18:33:10.334Z,22.00
2019-06-07T18:35:38.511Z,21.90
2019-06-07T18:38:06.513Z,21.90
2019-06-07T18:40:34.514Z,21.90
2019-06-07T18:43:02.481Z,21.80
2019-06-07T18:45:30.412Z,21.20
2019-06-07T18:47:58.058Z,21.60
2019-06-07T18:50:25.800Z,21.60
2019-06-07T18:52:54.787Z,21.50
2019-06-07T18:55:22.838Z,21.50
2019-06-07T18:57:52.178Z,21.50
2019-06-07T19:00:21.723Z,21.50
2019-06-07T19:02:49.764Z,21.50
2019-06-07T19:05:17.878Z,21.40
2019-06-07T19:07:45.759Z,21.30
2019-06-07T19:13:59.323Z,21.30
2019-06-07T19:16:27.304Z,21.10
2019-06-07T19:18:55.873Z,21.10
2019-06-07T19:21:23.977Z,21.00
2019-06-07T19:23:52.059Z,20.90
2019-06-07T19:26:20.033Z,20.80
2019-06-07T19:28:47.927Z,20.80
2019-06-07T19:31:15.615Z,20.70
2019-06-07T19:33:49.075Z,20.70
2019-06-07T19:36:13.358Z,20.60
2019-06-07T19:38:41.683Z,20.50
2019-06-07T19:41:19.427Z,20.30
2019-06-07T19:43:40.355Z,20.30
2019-06-07T19:46:08.182Z,20.30
2019-06-07T19:48:36.186Z,20.40
2019-06-07T19:51:04.160Z,20.30
2019-06-07T19:53:31.936Z,20.10
2019-06-07T19:55:59.965Z,20.10
2019-06-07T19:58:27.781Z,20.00
2019-06-07T20:00:55.651Z,20.10
2019-06-07T20:03:23.339Z,20.10
2019-06-07T20:05:51.436Z,20.00
2019-06-07T20:08:21.552Z,19.80
2019-06-07T20:10:49.679Z,19.80
2019-06-07T20:13:19.074Z,19.80
2019-06-07T20:15:47.023Z,19.70
2019-06-07T20:18:14.838Z,19.60
2019-06-07T20:20:42.772Z,19.50
2019-06-07T20:23:10.713Z,19.60
2019-06-07T20:25:38.691Z,19.70
2019-06-07T20:28:06.683Z,19.80
2019-06-07T20:30:34.789Z,19.90
2019-06-07T20:33:03.866Z,19.80
2019-06-07T20:35:31.866Z,19.70
2019-06-07T20:38:00.954Z,19.70
2019-06-07T20:40:29.066Z,19.70
2019-06-07T20:42:57.384Z,19.70
2019-06-07T20:45:33.596Z,19.70
2019-06-07T20:47:55.649Z,19.60
2019-06-07T20:50:23.886Z,19.70
2019-06-07T20:52:52.006Z,19.50
2019-06-07T20:55:20.084Z,19.40
2019-06-07T20:57:48.211Z,19.40
2019-06-07T21:00:21.785Z,19.40
2019-06-07T21:02:46.065Z,19.40
2019-06-07T21:05:14.019Z,19.40
2019-06-07T21:07:42.022Z,19.40
2019-06-07T21:10:10.637Z,19.30
2019-06-07T21:12:38.868Z,19.20
2019-06-07T21:15:11.889Z,19.20
2019-06-07T21:17:37.440Z,18.90
2019-06-07T21:20:07.522Z,19.10
2019-06-07T21:22:35.444Z,19.10
2019-06-07T21:25:05.005Z,19.00
2019-06-07T21:27:32.907Z,19.10
2019-06-07T21:30:01.069Z,19.10
2019-06-07T21:32:28.928Z,19.10
2019-06-07T21:34:56.866Z,19.20
2019-06-07T21:37:24.919Z,19.20
2019-06-07T21:39:52.853Z,19.10
2019-06-07T21:42:20.940Z,19.10
2019-06-07T21:44:48.794Z,19.00
2019-06-07T21:47:16.537Z,19.00
2019-06-07T21:49:44.412Z,19.10
2019-06-07T21:52:12.928Z,19.00
2019-06-07T21:54:41.142Z,19.00
2019-06-07T21:57:09.035Z,19.00
2019-06-07T21:59:36.852Z,19.10
2019-06-07T22:02:05.770Z,19.10
2019-06-07T22:04:33.672Z,19.20
2019-06-07T22:07:01.502Z,19.20
2019-06-07T22:09:29.741Z,19.10
2019-06-07T22:11:57.700Z,19.00
2019-06-07T22:14:25.445Z,18.60
2019-06-07T22:16:53.311Z,18.40
2019-06-07T22:19:21.089Z,18.20
2019-06-07T22:22:01.671Z,18.00
2019-06-07T22:24:18.644Z,17.90
2019-06-07T22:26:46.588Z,17.70
2019-06-07T22:29:14.592Z,17.50
2019-06-07T22:31:42.959Z,17.40
2019-06-07T22:34:10.793Z,17.30
2019-06-07T22:36:38.573Z,17.20
2019-06-07T22:39:07.520Z,17.20
2019-06-07T22:41:35.686Z,17.00
2019-06-07T22:44:03.449Z,17.00
2019-06-07T22:46:37.323Z,17.00
2019-06-07T22:49:01.118Z,16.90
2019-06-07T22:51:28.933Z,16.80
2019-06-07T22:53:56.757Z,16.80
2019-06-07T22:56:35.900Z,16.80
2019-06-07T22:59:03.927Z,16.80
2019-06-07T23:01:32.210Z,16.80
2019-06-07T23:04:00.094Z,16.70
2019-06-07T23:06:28.011Z,16.50
2019-06-07T23:08:56.103Z,16.40
2019-06-07T23:11:23.936Z,16.30
2019-06-07T23:13:51.789Z,16.20
2019-06-07T23:16:19.959Z,16.20
2019-06-07T23:18:47.933Z,16.10
2019-06-07T23:21:15.971Z,16.10
2019-06-07T23:23:43.712Z,16.00
2019-06-07T23:26:12.195Z,16.00
2019-06-07T23:28:39.991Z,16.00
2019-06-07T23:31:07.795Z,16.00
2019-06-07T23:33:35.688Z,16.00
2019-06-07T23:36:03.518Z,16.00
2019-06-07T23:38:31.519Z,16.00
2019-06-07T23:40:59.424Z,16.00
2019-06-07T23:43:27.227Z,15.90
2019-06-07T23:45:56.134Z,15.90
2019-06-07T23:48:23.947Z,15.90
2019-06-07T23:50:52.144Z,15.80
2019-06-07T23:53:20.063Z,15.80
2019-06-07T23:55:47.929Z,15.70
2019-06-07T23:58:16.341Z,15.60
